Time;durP1;ratioP1;P1;durP2;ratioP2;P2;SDS_P1;SDS_P2;PMS_P1;PMS_P2;Temp;Humidity;BMP_temperature;BMP_pressure;BME280_temperature;BME280_humidity;BME280_pressure;Samples;Min_cycle;Max_cycle;Signal;HPM_P1;HPM_P2
2021/08/14 00:00:50;;;;;;;28.65;6.18;;;12.30;99.90;;;;;;5095139;28;20024;-90
2021/08/14 00:03:16;;;;;;;25.45;5.43;;;12.30;99.90;;;;;;5095113;28;20403;-91
2021/08/14 00:05:42;;;;;;;26.15;5.53;;;12.40;99.90;;;;;;5094735;28;20024;-91
2021/08/14 00:08:07;;;;;;;43.35;6.85;;;12.40;99.90;;;;;;5094897;28;20431;-91
2021/08/14 00:10:33;;;;;;;33.78;5.65;;;12.70;99.90;;;;;;5095779;28;20020;-90
2021/08/14 00:12:59;;;;;;;20.02;4.93;;;12.70;99.90;;;;;;5094966;28;20028;-91
2021/08/14 00:15:24;;;;;;;23.40;5.30;;;12.60;99.90;;;;;;5094570;28;20024;-91
2021/08/14 00:17:50;;;;;;;24.45;6.18;;;12.60;99.90;;;;;;5094867;28;20035;-91
2021/08/14 00:20:16;;;;;;;23.02;5.47;;;12.60;99.90;;;;;;5094886;28;20118;-91
2021/08/14 00:22:44;;;;;;;26.00;5.57;;;12.70;99.90;;;;;;5094130;28;20024;-91
2021/08/14 00:25:10;;;;;;;20.90;5.43;;;12.90;99.90;;;;;;5079310;28;20476;-91
2021/08/14 00:27:36;;;;;;;25.50;5.50;;;12.80;99.90;;;;;;5094902;28;20039;-90
2021/08/14 00:30:03;;;;;;;23.02;4.38;;;12.80;99.90;;;;;;5094716;28;20028;-90
2021/08/14 00:32:28;;;;;;;34.58;6.45;;;12.70;99.90;;;;;;5094049;28;20020;-91
2021/08/14 00:34:54;;;;;;;22.25;4.93;;;12.80;99.90;;;;;;5093517;28;20020;-91
2021/08/14 00:37:19;;;;;;;18.63;4.80;;;12.70;99.90;;;;;;5094570;28;20546;-92
2021/08/14 00:39:45;;;;;;;27.63;5.20;;;12.60;99.90;;;;;;5094168;28;20042;-91
2021/08/14 00:42:10;;;;;;;18.13;5.68;;;12.60;99.90;;;;;;5093634;28;20031;-92
2021/08/14 00:44:36;;;;;;;40.47;7.78;;;12.60;99.90;;;;;;5093347;28;20028;-91
2021/08/14 00:47:04;;;;;;;32.08;8.57;;;12.70;99.90;;;;;;5093913;28;20067;-91
2021/08/14 00:49:29;;;;;;;28.85;5.75;;;12.80;99.90;;;;;;5094094;28;20023;-91
2021/08/14 00:51:55;;;;;;;38.47;8.05;;;12.90;99.90;;;;;;5093736;28;20020;-91
2021/08/14 00:54:21;;;;;;;30.02;6.10;;;13.00;99.90;;;;;;5093057;28;20024;-90
2021/08/14 00:56:47;;;;;;;40.63;8.82;;;12.90;99.90;;;;;;5094702;28;20427;-90
2021/08/14 00:59:13;;;;;;;28.30;6.82;;;13.00;99.90;;;;;;5093412;28;20031;-91
2021/08/14 01:01:38;;;;;;;38.67;6.88;;;13.00;99.90;;;;;;5092644;28;20028;-91
2021/08/14 01:04:04;;;;;;;34.20;6.97;;;13.00;99.90;;;;;;5093388;28;20472;-91
2021/08/14 01:06:31;;;;;;;46.30;9.23;;;13.00;99.90;;;;;;5093095;28;20047;-91
2021/08/14 01:08:57;;;;;;;27.77;5.93;;;13.10;99.90;;;;;;5094432;28;20042;-92
2021/08/14 01:11:23;;;;;;;29.33;6.35;;;13.10;99.90;;;;;;5093324;28;20093;-91
2021/08/14 01:13:49;;;;;;;26.73;6.80;;;13.00;99.90;;;;;;5093825;28;20028;-91
2021/08/14 01:16:15;;;;;;;22.10;4.68;;;13.10;99.90;;;;;;5094647;28;20525;-90
2021/08/14 01:18:42;;;;;;;27.55;6.13;;;13.00;99.90;;;;;;5093659;28;20126;-91
2021/08/14 01:21:22;;;;;;;37.33;7.07;;;13.10;99.90;;;;;;5093632;28;20540;-91
2021/08/14 01:23:48;;;;;;;31.33;5.80;;;13.00;99.90;;;;;;5094294;28;20119;-90
2021/08/14 01:26:14;;;;;;;27.85;6.72;;;13.10;99.90;;;;;;5093757;28;20020;-91
2021/08/14 01:28:41;;;;;;;40.50;7.28;;;13.10;99.90;;;;;;5094173;28;20020;-92
2021/08/14 01:31:08;;;;;;;26.38;7.35;;;13.30;99.90;;;;;;5093598;28;20503;-91
2021/08/14 01:33:36;;;;;;;40.60;7.90;;;13.30;99.90;;;;;;5093438;28;20020;-91
2021/08/14 01:36:06;;;;;;;31.65;7.43;;;13.40;99.90;;;;;;5093860;28;20024;-91
2021/08/14 01:38:32;;;;;;;25.55;6.85;;;13.40;99.90;;;;;;5095141;28;20023;-91
2021/08/14 01:40:57;;;;;;;28.55;6.10;;;13.40;99.90;;;;;;5093714;28;20024;-90
2021/08/14 01:43:23;;;;;;;25.33;6.43;;;13.30;99.90;;;;;;5093095;28;20464;-91
2021/08/14 01:45:49;;;;;;;37.78;7.40;;;13.30;99.90;;;;;;5093968;28;20077;-91
2021/08/14 01:48:16;;;;;;;21.42;6.25;;;13.30;99.90;;;;;;5093419;28;20042;-90
2021/08/14 01:50:42;;;;;;;37.80;6.53;;;13.20;99.90;;;;;;5094369;28;20024;-90
2021/08/14 01:53:08;;;;;;;36.38;7.72;;;13.20;99.90;;;;;;5093970;28;20055;-90
2021/08/14 01:55:33;;;;;;;34.65;8.88;;;13.30;99.90;;;;;;5093133;28;20498;-90
2021/08/14 01:57:59;;;;;;;36.90;9.23;;;13.40;99.90;;;;;;5093197;28;20030;-92
2021/08/14 02:00:25;;;;;;;32.38;8.52;;;13.50;99.90;;;;;;5093505;28;20020;-91
2021/08/14 02:02:50;;;;;;;28.73;6.60;;;13.40;99.90;;;;;;5093891;28;20032;-92
2021/08/14 02:05:16;;;;;;;25.67;7.40;;;13.40;99.90;;;;;;5092562;28;20028;-91
2021/08/14 02:07:42;;;;;;;31.55;7.35;;;13.40;99.90;;;;;;5094091;28;20027;-91
2021/08/14 02:10:09;;;;;;;27.38;7.10;;;13.40;99.90;;;;;;5093583;28;20016;-90
2021/08/14 02:12:35;;;;;;;34.25;7.38;;;13.40;99.90;;;;;;5095555;28;20020;-92
2021/08/14 02:15:04;;;;;;;32.22;8.10;;;13.40;99.90;;;;;;5097126;28;20506;-92
2021/08/14 02:17:32;;;;;;;33.58;8.35;;;13.40;99.90;;;;;;5097645;28;20028;-91
2021/08/14 02:19:57;;;;;;;44.78;7.90;;;13.50;99.90;;;;;;5096978;28;20036;-90
2021/08/14 02:22:23;;;;;;;32.22;8.07;;;13.60;99.90;;;;;;5096843;28;20050;-91
2021/08/14 02:24:48;;;;;;;35.55;8.57;;;13.60;99.90;;;;;;5096284;28;20055;-91
2021/08/14 02:27:14;;;;;;;38.60;9.77;;;13.70;99.90;;;;;;5097111;28;20031;-91
2021/08/14 02:29:39;;;;;;;42.50;9.27;;;14.00;99.90;;;;;;5103143;28;20023;-92
2021/08/14 02:32:05;;;;;;;37.63;9.15;;;14.10;99.90;;;;;;5106356;28;20028;-92
2021/08/14 02:34:31;;;;;;;44.70;9.82;;;14.20;99.90;;;;;;5107261;28;20092;-91
2021/08/14 02:36:56;;;;;;;30.00;8.48;;;14.30;99.90;;;;;;5105410;28;20039;-91
2021/08/14 02:39:22;;;;;;;48.88;9.88;;;14.30;99.90;;;;;;5097659;28;20035;-92
2021/08/14 02:41:47;;;;;;;46.95;8.25;;;14.30;99.90;;;;;;5096698;28;20043;-91
2021/08/14 02:44:13;;;;;;;37.10;10.57;;;14.40;99.90;;;;;;5096186;28;20066;-91
2021/08/14 02:46:38;;;;;;;32.75;8.40;;;14.50;99.90;;;;;;5096986;28;20035;-92
2021/08/14 02:49:04;;;;;;;42.92;9.05;;;14.50;99.90;;;;;;5095912;28;20073;-91
2021/08/14 02:51:30;;;;;;;58.80;12.05;;;14.60;99.90;;;;;;5096079;28;20031;-90
2021/08/14 02:53:57;;;;;;;53.67;12.10;;;14.70;99.90;;;;;;5096003;28;20385;-91
2021/08/14 02:56:23;;;;;;;42.83;9.77;;;14.90;99.90;;;;;;5095723;28;20028;-92
2021/08/14 02:58:54;;;;;;;59.95;11.98;;;15.10;99.90;;;;;;5095567;28;20031;-91
2021/08/14 03:01:19;;;;;;;62.00;13.88;;;15.10;99.90;;;;;;5095613;28;20043;-91
2021/08/14 03:03:51;;;;;;;63.63;12.93;;;15.30;99.90;;;;;;5095346;28;20024;-90
2021/08/14 03:06:27;;;;;;;39.00;10.82;;;15.40;99.90;;;;;;5094689;28;20040;-91
2021/08/14 03:08:53;;;;;;;51.95;10.10;;;15.60;99.90;;;;;;5096308;28;20491;-91
2021/08/14 03:11:19;;;;;;;54.67;12.38;;;15.60;99.90;;;;;;5095428;28;20050;-90
2021/08/14 03:13:45;;;;;;;51.72;10.40;;;15.70;99.90;;;;;;5095112;28;20499;-90
2021/08/14 03:16:11;;;;;;;47.10;10.13;;;15.70;99.90;;;;;;5094778;28;20038;-91
2021/08/14 03:18:37;;;;;;;55.03;11.60;;;15.80;99.90;;;;;;5095065;28;20054;-90
2021/08/14 03:21:02;;;;;;;59.22;11.55;;;15.90;99.90;;;;;;5096290;28;20028;-91
2021/08/14 03:23:28;;;;;;;68.25;12.60;;;16.00;99.90;;;;;;5095249;28;20476;-90
2021/08/14 03:25:54;;;;;;;65.25;12.27;;;16.10;99.90;;;;;;5093610;28;20024;-92
2021/08/14 03:28:19;;;;;;;56.92;11.55;;;16.10;99.90;;;;;;5096144;28;20027;-90
2021/08/14 03:30:45;;;;;;;49.38;11.30;;;16.20;99.90;;;;;;5095003;28;20024;-90
2021/08/14 03:33:10;;;;;;;62.05;10.43;;;16.20;99.90;;;;;;5095109;28;20105;-90
2021/08/14 03:35:38;;;;;;;43.47;11.07;;;16.10;99.90;;;;;;5094542;28;20064;-92
2021/08/14 03:38:04;;;;;;;78.15;11.38;;;16.10;99.90;;;;;;5094173;28;20277;-90
2021/08/14 03:40:30;;;;;;;54.63;11.30;;;16.10;99.90;;;;;;5094629;28;20108;-89
2021/08/14 03:42:57;;;;;;;48.42;11.98;;;16.10;99.90;;;;;;5094580;28;20537;-91
2021/08/14 03:45:23;;;;;;;48.15;10.82;;;16.10;99.90;;;;;;5094527;28;20021;-90
2021/08/14 03:47:49;;;;;;;48.75;11.85;;;16.20;99.90;;;;;;5094574;28;20024;-89
2021/08/14 03:50:14;;;;;;;43.40;10.73;;;16.20;99.90;;;;;;5094900;28;20086;-90
2021/08/14 03:52:40;;;;;;;53.08;9.98;;;16.10;99.90;;;;;;5094335;28;20032;-90
2021/08/14 03:55:07;;;;;;;55.65;10.73;;;16.20;99.90;;;;;;5095363;28;20066;-91
2021/08/14 03:57:35;;;;;;;52.10;11.90;;;16.20;99.90;;;;;;5093667;28;20024;-91
2021/08/14 04:00:02;;;;;;;48.20;11.48;;;16.40;99.90;;;;;;5094375;28;20073;-90
2021/08/14 04:02:27;;;;;;;58.28;11.27;;;16.30;99.90;;;;;;5094236;28;20028;-90
2021/08/14 04:04:53;;;;;;;65.00;11.88;;;16.20;99.90;;;;;;5093779;28;20383;-87
2021/08/14 04:07:21;;;;;;;50.33;10.75;;;16.30;99.90;;;;;;5093707;28;20020;-90
2021/08/14 04:09:47;;;;;;;54.15;12.77;;;16.50;99.90;;;;;;5095605;28;20035;-90
2021/08/14 04:12:12;;;;;;;59.80;11.38;;;16.40;99.90;;;;;;5097077;28;20542;-91
2021/08/14 04:14:38;;;;;;;62.35;10.25;;;16.40;99.90;;;;;;5096297;28;20027;-89
2021/08/14 04:17:04;;;;;;;63.33;11.68;;;16.60;99.90;;;;;;5094014;28;20024;-90
2021/08/14 04:19:30;;;;;;;48.25;10.10;;;16.50;99.90;;;;;;5093290;28;20031;-90
2021/08/14 04:22:00;;;;;;;53.38;10.98;;;16.70;99.90;;;;;;5093942;28;20480;-91
2021/08/14 04:24:28;;;;;;;46.92;9.68;;;16.70;99.90;;;;;;5094264;28;20031;-90
2021/08/14 04:27:04;;;;;;;;;;;;;;;;;;;;;
2021/08/14 04:29:30;;;;;;;57.85;10.55;;;16.70;99.90;;;;;;5075581;28;20039;-90
2021/08/14 04:31:55;;;;;;;54.95;10.80;;;16.70;99.90;;;;;;5091644;28;20064;-90
2021/08/14 04:34:21;;;;;;;34.88;8.95;;;16.70;99.90;;;;;;5091279;28;20033;-92
2021/08/14 04:36:47;;;;;;;61.90;11.70;;;16.70;99.90;;;;;;5074300;28;20029;-90
2021/08/14 04:39:15;;;;;;;47.38;9.77;;;16.80;99.90;;;;;;5093227;28;20507;-91
2021/08/14 04:41:41;;;;;;;41.75;10.07;;;16.90;99.90;;;;;;5093129;28;20024;-89
2021/08/14 04:44:07;;;;;;;48.80;9.00;;;16.90;99.90;;;;;;5094004;28;20072;-92
2021/08/14 04:46:32;;;;;;;63.53;12.65;;;16.90;99.90;;;;;;5095079;28;20020;-89
2021/08/14 04:48:58;;;;;;;46.03;8.98;;;16.90;99.90;;;;;;5092583;28;20027;-91
2021/08/14 04:51:23;;;;;;;49.83;10.02;;;17.00;99.90;;;;;;5092717;28;20028;-89
2021/08/14 04:53:49;;;;;;;46.00;10.18;;;16.90;99.90;;;;;;5092587;28;20020;-88
2021/08/14 04:56:14;;;;;;;53.15;11.02;;;17.00;99.90;;;;;;5092517;28;20032;-88
2021/08/14 04:58:43;;;;;;;63.72;10.25;;;17.00;99.90;;;;;;5093362;28;20039;-90
2021/08/14 05:01:08;;;;;;;43.85;8.38;;;17.00;99.90;;;;;;5092998;28;20024;-91
2021/08/14 05:03:34;;;;;;;53.45;9.40;;;17.00;99.90;;;;;;5093336;28;20089;-91
2021/08/14 05:05:59;;;;;;;31.42;7.60;;;17.00;99.90;;;;;;5093066;28;20031;-91
2021/08/14 05:08:33;;;;;;;41.90;8.85;;;16.90;99.90;;;;;;5093258;28;20023;-88
2021/08/14 05:10:58;;;;;;;71.47;11.82;;;17.00;99.90;;;;;;5092647;28;20493;-89
2021/08/14 05:13:24;;;;;;;41.72;8.95;;;17.10;99.90;;;;;;5092857;28;20114;-89
2021/08/14 05:15:57;;;;;;;32.05;7.38;;;17.00;99.90;;;;;;5092715;28;20131;-91
2021/08/14 05:18:23;;;;;;;54.72;8.10;;;17.10;99.90;;;;;;5094473;28;20024;-91
2021/08/14 05:20:51;;;;;;;59.13;10.18;;;17.20;99.90;;;;;;5092619;28;20372;-89
2021/08/14 05:23:17;;;;;;;54.45;11.82;;;17.10;99.90;;;;;;5092626;28;20031;-88
2021/08/14 05:25:42;;;;;;;46.80;9.57;;;17.30;99.90;;;;;;5092917;28;20028;-91
2021/08/14 05:28:08;;;;;;;60.42;11.43;;;17.30;99.90;;;;;;5092922;28;20016;-89
2021/08/14 05:30:34;;;;;;;52.60;8.73;;;17.40;99.90;;;;;;5093371;28;20028;-91
2021/08/14 05:32:59;;;;;;;44.17;9.38;;;17.40;99.90;;;;;;5093052;28;20158;-91
2021/08/14 05:35:26;;;;;;;60.85;12.13;;;17.60;99.90;;;;;;5092365;28;20031;-87
2021/08/14 05:37:51;;;;;;;42.53;10.27;;;17.40;99.90;;;;;;5092117;28;20544;-90
2021/08/14 05:40:17;;;;;;;64.88;11.98;;;17.50;99.90;;;;;;5092750;28;20068;-90
2021/08/14 05:42:42;;;;;;;64.20;13.07;;;17.60;99.90;;;;;;5092472;28;20027;-91
2021/08/14 05:45:09;;;;;;;53.60;11.32;;;17.60;99.90;;;;;;5093398;28;20095;-90
2021/08/14 05:47:35;;;;;;;59.25;11.57;;;17.70;99.90;;;;;;5093821;28;20020;-91
2021/08/14 05:50:00;;;;;;;47.72;10.25;;;17.70;99.90;;;;;;5098776;28;20026;-89
2021/08/14 05:52:44;;;;;;;42.72;9.40;;;17.70;99.90;;;;;;5100385;28;20073;-91
2021/08/14 05:55:43;;;;;;;44.38;11.05;;;17.70;99.90;;;;;;5099282;28;20084;-92
2021/08/14 05:58:04;;;;;;;51.97;10.95;;;17.70;99.90;;;;;;5098072;28;20028;-91
2021/08/14 06:00:30;;;;;;;57.17;9.63;;;17.80;99.90;;;;;;5098711;28;20057;-91
2021/08/14 06:02:55;;;;;;;51.90;9.88;;;17.70;99.90;;;;;;5099167;28;20102;-90
2021/08/14 06:05:21;;;;;;;48.13;9.73;;;17.80;99.90;;;;;;5099212;28;20045;-91
2021/08/14 06:07:48;;;;;;;63.38;10.75;;;17.80;99.90;;;;;;5099258;28;20491;-90
2021/08/14 06:10:15;;;;;;;49.53;10.32;;;17.80;99.90;;;;;;5099260;28;20024;-88
2021/08/14 06:12:41;;;;;;;54.63;10.15;;;17.80;99.90;;;;;;5099720;28;20535;-92
2021/08/14 06:15:07;;;;;;;59.70;10.65;;;17.80;99.90;;;;;;5098018;28;20066;-89
2021/08/14 06:17:35;;;;;;;55.10;9.27;;;17.80;99.90;;;;;;5098652;28;20032;-90
2021/08/14 06:20:02;;;;;;;59.38;10.30;;;17.80;99.90;;;;;;5098571;28;20032;-91
2021/08/14 06:22:27;;;;;;;44.80;9.73;;;17.90;99.90;;;;;;5098008;28;20568;-89
2021/08/14 06:24:53;;;;;;;46.22;10.45;;;18.00;99.90;;;;;;5098502;28;20020;-89
2021/08/14 06:27:20;;;;;;;55.13;10.55;;;17.80;99.90;;;;;;5098553;28;20059;-90
2021/08/14 06:29:45;;;;;;;47.42;10.00;;;18.00;99.90;;;;;;5099547;28;20055;-90
2021/08/14 06:32:11;;;;;;;50.75;10.40;;;18.10;99.90;;;;;;5099076;28;20031;-92
2021/08/14 06:34:41;;;;;;;50.40;10.65;;;18.00;99.90;;;;;;5098295;28;20098;-91
2021/08/14 06:37:06;;;;;;;49.85;10.13;;;18.10;99.90;;;;;;5098408;28;20244;-90
2021/08/14 06:39:37;;;;;;;49.00;9.43;;;18.10;99.90;;;;;;5099498;28;20093;-88
2021/08/14 06:42:04;;;;;;;48.70;9.95;;;18.10;99.90;;;;;;5098081;28;20364;-90
2021/08/14 06:44:30;;;;;;;50.88;11.02;;;18.20;99.90;;;;;;5098046;28;20396;-88
2021/08/14 06:46:56;;;;;;;76.03;11.43;;;18.10;99.90;;;;;;5098171;28;20027;-90
2021/08/14 06:49:24;;;;;;;45.20;9.68;;;18.30;99.90;;;;;;5097972;28;20102;-88
2021/08/14 06:51:49;;;;;;;51.10;10.70;;;18.40;99.90;;;;;;5098344;28;20028;-90
2021/08/14 06:54:15;;;;;;;56.25;10.00;;;18.40;99.90;;;;;;5097678;28;20091;-89
2021/08/14 06:56:43;;;;;;;55.20;9.30;;;18.50;99.90;;;;;;5098328;28;20020;-91
2021/08/14 06:59:17;;;;;;;44.50;8.68;;;18.60;99.90;;;;;;5097159;28;20490;-89
2021/08/14 07:01:43;;;;;;;37.50;8.57;;;18.60;99.90;;;;;;5095299;28;20028;-91
2021/08/14 07:04:09;;;;;;;41.42;9.75;;;18.70;99.90;;;;;;5094268;28;20039;-86
2021/08/14 07:06:34;;;;;;;46.35;9.43;;;18.70;99.90;;;;;;5094963;28;20112;-88
2021/08/14 07:09:00;;;;;;;49.97;8.77;;;18.70;99.90;;;;;;5094011;28;20070;-87
2021/08/14 07:11:27;;;;;;;47.15;10.43;;;18.70;99.90;;;;;;5093718;28;20376;-87
2021/08/14 07:13:52;;;;;;;53.25;9.15;;;18.60;99.90;;;;;;5094606;28;20591;-87
2021/08/14 07:16:29;;;;;;;40.92;9.38;;;18.70;99.90;;;;;;5093363;28;20035;-84
2021/08/14 07:18:54;;;;;;;35.65;8.45;;;18.70;99.90;;;;;;5093193;28;20035;-85
2021/08/14 07:21:20;;;;;;;40.75;9.80;;;18.70;99.90;;;;;;5086876;28;20028;-83
2021/08/14 07:23:46;;;;;;;49.33;9.18;;;18.70;99.90;;;;;;5088000;28;20032;-82
2021/08/14 07:26:11;;;;;;;45.25;8.50;;;18.70;99.90;;;;;;5091369;28;20484;-86
2021/08/14 07:28:37;;;;;;;45.88;8.68;;;18.80;99.90;;;;;;5095216;28;20065;-90
2021/08/14 07:31:05;;;;;;;39.10;8.13;;;18.70;99.90;;;;;;5085170;28;20021;-90
2021/08/14 07:33:30;;;;;;;56.10;9.90;;;18.70;99.90;;;;;;5094709;28;20024;-91
2021/08/14 07:35:56;;;;;;;45.70;9.25;;;18.70;99.90;;;;;;5094215;28;20026;-90
2021/08/14 07:38:21;;;;;;;43.28;8.02;;;18.70;99.90;;;;;;5095214;28;20044;-89
2021/08/14 07:40:47;;;;;;;46.92;9.40;;;18.60;99.90;;;;;;5093772;28;20035;-89
2021/08/14 07:43:12;;;;;;;44.58;10.18;;;18.70;99.90;;;;;;5087425;28;20024;-91
2021/08/14 07:45:38;;;;;;;37.65;9.00;;;18.60;99.90;;;;;;5074572;28;20016;-88
2021/08/14 07:48:05;;;;;;;53.80;11.15;;;18.80;99.90;;;;;;5094434;28;20024;-90
2021/08/14 07:50:32;;;;;;;43.78;11.63;;;18.90;99.90;;;;;;5093688;28;20073;-86
2021/08/14 07:52:59;;;;;;;44.90;9.23;;;19.20;99.90;;;;;;5092954;28;20545;-86
2021/08/14 07:55:29;;;;;;;52.63;9.77;;;19.30;99.90;;;;;;5092674;28;20472;-87
2021/08/14 07:57:54;;;;;;;40.15;9.50;;;19.20;99.90;;;;;;5093873;28;20024;-84
2021/08/14 08:00:22;;;;;;;47.55;9.77;;;19.30;99.90;;;;;;5092554;28;20038;-88
2021/08/14 08:02:48;;;;;;;43.67;9.23;;;19.10;99.90;;;;;;5092732;28;20032;-88
2021/08/14 08:05:15;;;;;;;50.10;9.38;;;19.00;99.90;;;;;;5093661;28;20499;-88
2021/08/14 08:07:43;;;;;;;41.00;9.73;;;19.00;99.90;;;;;;5092844;28;20024;-87
2021/08/14 08:10:10;;;;;;;39.88;7.88;;;19.10;99.90;;;;;;5092146;28;20103;-88
2021/08/14 08:12:36;;;;;;;48.58;9.30;;;19.00;99.90;;;;;;5092710;28;20035;-88
2021/08/14 08:15:06;;;;;;;43.50;10.40;;;19.00;99.90;;;;;;5092224;28;20020;-86
2021/08/14 08:17:32;;;;;;;41.70;9.07;;;19.00;99.90;;;;;;5092590;28;20063;-90
2021/08/14 08:19:57;;;;;;;48.53;9.80;;;19.00;99.90;;;;;;5094294;28;20032;-91
2021/08/14 08:22:23;;;;;;;49.08;10.88;;;19.00;99.90;;;;;;5093537;28;20476;-88
2021/08/14 08:24:49;;;;;;;51.95;12.00;;;19.00;99.90;;;;;;5093167;28;20027;-88
2021/08/14 08:27:14;;;;;;;54.03;10.38;;;19.20;99.90;;;;;;5093353;28;20028;-91
2021/08/14 08:29:40;;;;;;;48.78;10.80;;;19.10;99.90;;;;;;5093051;28;20031;-89
2021/08/14 08:32:14;;;;;;;52.20;11.30;;;19.20;99.90;;;;;;5094771;28;20024;-90
2021/08/14 08:34:39;;;;;;;50.15;11.73;;;19.10;99.90;;;;;;5093289;28;20380;-92
2021/08/14 08:37:05;;;;;;;48.85;11.25;;;19.20;99.90;;;;;;5093776;28;20135;-90
2021/08/14 08:39:32;;;;;;;47.75;10.55;;;19.30;99.90;;;;;;5093496;28;20032;-92
2021/08/14 08:42:00;;;;;;;54.40;9.88;;;19.30;99.90;;;;;;5093281;28;20032;-91
2021/08/14 08:44:26;;;;;;;53.33;10.73;;;19.30;99.90;;;;;;5093246;28;20460;-90
2021/08/14 08:46:52;;;;;;;52.97;9.27;;;19.40;99.90;;;;;;5092740;28;20028;-89
2021/08/14 08:49:19;;;;;;;45.50;10.30;;;19.40;99.90;;;;;;5093286;28;20032;-89
2021/08/14 08:51:53;;;;;;;43.33;10.40;;;19.30;99.90;;;;;;5093194;28;20024;-93
2021/08/14 08:54:19;;;;;;;44.25;8.95;;;19.40;99.90;;;;;;5093549;28;20035;-88
2021/08/14 08:56:45;;;;;;;37.63;8.50;;;19.70;99.90;;;;;;5094131;28;20020;-91
2021/08/14 08:59:12;;;;;;;45.50;10.05;;;19.70;99.90;;;;;;5093532;28;20028;-90
2021/08/14 09:01:38;;;;;;;35.85;8.60;;;19.70;99.90;;;;;;5092408;28;20434;-90
2021/08/14 09:04:28;;;;;;;41.50;9.50;;;19.70;99.90;;;;;;5092541;28;20027;-87
2021/08/14 09:06:57;;;;;;;52.70;10.63;;;19.50;99.90;;;;;;5093892;28;20129;-90
2021/08/14 09:09:30;;;;;;;44.63;10.15;;;19.60;99.90;;;;;;5092374;28;20030;-90
2021/08/14 09:12:00;;;;;;;50.92;9.82;;;19.50;99.90;;;;;;5093199;28;20430;-89
2021/08/14 09:14:28;;;;;;;53.88;11.60;;;19.60;99.90;;;;;;5092202;28;20056;-89
2021/08/14 09:17:08;;;;;;;51.15;11.30;;;19.60;99.90;;;;;;5092787;28;20028;-89
2021/08/14 09:19:34;;;;;;;64.00;13.27;;;19.70;99.90;;;;;;5092334;28;20031;-90
2021/08/14 09:22:23;;;;;;;42.97;10.52;;;19.50;99.90;;;;;;5091563;28;20120;-86
2021/08/14 09:24:49;;;;;;;52.17;11.77;;;19.50;99.90;;;;;;5091791;28;20020;-86
2021/08/14 09:27:17;;;;;;;54.80;11.02;;;19.40;99.90;;;;;;5092079;28;20020;-88
2021/08/14 09:29:44;;;;;;;49.70;10.60;;;19.60;99.90;;;;;;5093420;28;20027;-89
2021/08/14 09:32:15;;;;;;;43.55;10.18;;;19.60;99.90;;;;;;5092295;28;20024;-87
2021/08/14 09:34:49;;;;;;;49.55;10.45;;;19.70;99.90;;;;;;5091114;28;20365;-89
2021/08/14 09:37:16;;;;;;;46.28;9.30;;;19.50;99.90;;;;;;5092077;28;20549;-86
2021/08/14 09:40:09;;;;;;;43.05;10.65;;;19.50;99.90;;;;;;5092194;28;20047;-88
2021/08/14 09:42:49;;;;;;;43.80;8.35;;;19.60;99.90;;;;;;5088854;28;20036;-89
2021/08/14 09:45:17;;;;;;;44.25;9.93;;;19.50;99.90;;;;;;5092003;28;20027;-89
2021/08/14 09:47:45;;;;;;;40.45;8.75;;;19.60;99.90;;;;;;5091662;28;20511;-89
2021/08/14 09:50:12;;;;;;;43.25;9.27;;;19.60;99.90;;;;;;5091533;28;20029;-87
2021/08/14 09:52:41;;;;;;;38.15;9.68;;;19.60;99.90;;;;;;5091398;28;20119;-88
2021/08/14 09:55:12;;;;;;;39.38;9.05;;;19.90;99.90;;;;;;5092268;28;20081;-88
2021/08/14 09:57:38;;;;;;;40.45;7.97;;;19.90;99.90;;;;;;5093505;28;20028;-91
2021/08/14 10:00:06;;;;;;;39.78;8.57;;;20.00;99.90;;;;;;5092257;28;20024;-90
2021/08/14 10:02:32;;;;;;;42.00;9.60;;;20.10;99.90;;;;;;5092342;28;20020;-86
2021/08/14 10:05:01;;;;;;;36.95;9.35;;;20.00;99.90;;;;;;5091113;28;20035;-91
2021/08/14 10:07:27;;;;;;;33.03;8.63;;;19.90;99.90;;;;;;5092245;28;20023;-86
2021/08/14 10:09:56;;;;;;;42.42;8.13;;;19.80;99.90;;;;;;5093013;28;20017;-87
2021/08/14 10:12:22;;;;;;;41.58;10.93;;;19.40;99.90;;;;;;5092733;28;20032;-91
2021/08/14 10:14:49;;;;;;;51.17;11.13;;;18.90;99.90;;;;;;5090671;28;20093;-87
2021/08/14 10:17:16;;;;;;;43.15;11.10;;;18.70;99.90;;;;;;5086819;28;20028;-87
2021/08/14 10:19:42;;;;;;;40.08;9.73;;;18.70;99.90;;;;;;5087473;28;20024;-89
2021/08/14 10:22:09;;;;;;;46.72;9.80;;;18.70;99.90;;;;;;5087937;28;20032;-85
2021/08/14 10:24:38;;;;;;;27.27;8.75;;;18.70;99.90;;;;;;5084800;28;20021;-87
2021/08/14 10:27:08;;;;;;;45.15;8.73;;;18.70;99.90;;;;;;5086075;28;20054;-85
2021/08/14 10:29:51;;;;;;;39.20;9.50;;;18.80;99.90;;;;;;5085850;28;20024;-86
2021/08/14 10:32:32;;;;;;;30.42;8.70;;;18.90;99.90;;;;;;5085455;28;20032;-88
2021/08/14 10:35:31;;;;;;;36.53;9.23;;;19.00;99.90;;;;;;5088963;28;20492;-89
2021/08/14 10:37:56;;;;;;;36.47;8.75;;;19.10;99.90;;;;;;5091162;28;20020;-90
2021/08/14 10:40:22;;;;;;;45.78;8.60;;;19.30;99.90;;;;;;5084542;28;20032;-88
2021/08/14 10:42:53;;;;;;;36.55;7.15;;;19.30;99.90;;;;;;5093517;28;20040;-89
2021/08/14 10:45:21;;;;;;;34.13;7.13;;;19.30;99.90;;;;;;5091612;28;20103;-89
2021/08/14 10:47:49;;;;;;;34.47;7.55;;;19.40;99.90;;;;;;5089437;28;20085;-87
2021/08/14 10:50:33;;;;;;;36.60;6.68;;;19.40;99.90;;;;;;5092148;28;20141;-85
2021/08/14 10:53:11;;;;;;;38.47;7.97;;;19.50;99.90;;;;;;5084259;28;20510;-90
2021/08/14 10:56:03;;;;;;;36.42;7.25;;;19.50;99.90;;;;;;5091197;28;20480;-89
2021/08/14 10:58:38;;;;;;;40.10;7.53;;;19.70;99.90;;;;;;5089195;28;20051;-90
2021/08/14 11:01:03;;;;;;;36.15;8.05;;;19.70;99.90;;;;;;5091223;28;20028;-89
2021/08/14 11:03:33;;;;;;;33.70;7.03;;;19.70;99.90;;;;;;5091089;28;20024;-87
2021/08/14 11:06:36;;;;;;;37.80;7.88;;;19.70;99.90;;;;;;5089506;28;20023;-88
2021/08/14 11:09:17;;;;;;;34.45;6.82;;;19.70;99.90;;;;;;5083238;28;20042;-91
2021/08/14 11:12:02;;;;;;;28.45;5.85;;;19.90;99.90;;;;;;5087819;28;20051;-92
2021/08/14 11:14:42;;;;;;;33.20;6.20;;;19.70;99.90;;;;;;5091064;28;20024;-87
2021/08/14 11:17:10;;;;;;;58.63;8.15;;;19.80;99.90;;;;;;5091954;28;20065;-88
2021/08/14 11:19:57;;;;;;;32.25;7.50;;;19.70;99.90;;;;;;5091132;28;20548;-89
2021/08/14 11:22:25;;;;;;;36.80;7.25;;;19.70;99.90;;;;;;5091262;28;20051;-87
2021/08/14 11:24:52;;;;;;;31.73;6.00;;;19.60;99.90;;;;;;5090375;28;20069;-88
2021/08/14 11:27:24;;;;;;;26.20;7.25;;;19.60;99.90;;;;;;5089114;28;20054;-85
2021/08/14 11:29:58;;;;;;;33.78;7.50;;;19.50;99.90;;;;;;5105095;28;20021;-89
2021/08/14 11:32:24;;;;;;;28.35;6.45;;;19.50;99.90;;;;;;5089408;28;20020;-88
2021/08/14 11:34:51;;;;;;;29.58;6.45;;;19.50;99.90;;;;;;5085872;28;20054;-87
2021/08/14 11:37:17;;;;;;;33.30;6.88;;;19.40;99.90;;;;;;5089629;28;20089;-89
2021/08/14 11:39:43;;;;;;;41.53;7.68;;;19.60;99.90;;;;;;5092784;28;20048;-88
2021/08/14 11:42:12;;;;;;;32.55;7.35;;;19.70;99.90;;;;;;5087023;28;20066;-89
2021/08/14 11:44:40;;;;;;;29.13;6.75;;;19.90;99.90;;;;;;5090643;28;20028;-88
2021/08/14 11:47:09;;;;;;;30.35;6.78;;;19.70;99.90;;;;;;5091438;28;20020;-90
2021/08/14 11:49:55;;;;;;;32.97;7.68;;;19.80;99.90;;;;;;5091034;28;20016;-87
2021/08/14 11:52:25;;;;;;;23.92;7.00;;;19.80;99.90;;;;;;5092419;28;20031;-87
2021/08/14 11:55:08;;;;;;;33.97;6.53;;;20.00;99.90;;;;;;5092243;28;20024;-86
2021/08/14 11:57:38;;;;;;;30.43;6.87;;;20.00;99.90;;;;;;5092617;28;20027;-86
2021/08/14 12:00:26;;;;;;;30.90;6.93;;;19.80;99.90;;;;;;5092399;28;20492;-85
2021/08/14 12:03:14;;;;;;;33.58;6.88;;;19.90;99.90;;;;;;5092355;28;20024;-85
2021/08/14 12:05:42;;;;;;;30.58;6.07;;;20.00;99.90;;;;;;5091800;28;20065;-86
2021/08/14 12:08:08;;;;;;;27.83;5.88;;;20.20;99.90;;;;;;5093254;28;20520;-86
2021/08/14 12:10:35;;;;;;;30.98;6.22;;;20.20;99.90;;;;;;5093559;28;20024;-87
2021/08/14 12:13:06;;;;;;;29.63;6.70;;;20.20;99.90;;;;;;5093372;28;20074;-86
2021/08/14 12:15:43;;;;;;;23.33;5.32;;;20.00;99.90;;;;;;5091707;28;20499;-85
2021/08/14 12:18:09;;;;;;;28.77;5.95;;;19.80;99.90;;;;;;5092253;28;20096;-84
2021/08/14 12:20:40;;;;;;;28.52;6.72;;;19.60;99.90;;;;;;5092049;28;20047;-87
2021/08/14 12:23:39;;;;;;;33.60;7.18;;;19.60;99.90;;;;;;5092039;28;20503;-86
2021/08/14 12:26:23;;;;;;;30.95;5.95;;;19.50;99.90;;;;;;5060011;28;20132;-84
2021/08/14 12:29:02;;;;;;;27.73;7.05;;;19.60;99.90;;;;;;5072934;28;20028;-85
2021/08/14 12:31:28;;;;;;;29.50;6.32;;;19.40;99.90;;;;;;5072947;28;20025;-83
2021/08/14 12:33:59;;;;;;;46.03;8.07;;;19.20;99.90;;;;;;5071105;28;20067;-84
2021/08/14 12:36:32;;;;;;;24.27;6.38;;;19.00;99.90;;;;;;5084112;28;20024;-83
2021/08/14 12:38:58;;;;;;;27.05;5.53;;;18.80;99.90;;;;;;5091975;28;20479;-87
2021/08/14 12:41:23;;;;;;;29.65;5.88;;;18.50;99.90;;;;;;5092491;28;20028;-88